Time;durP1;ratioP1;P1;durP2;ratioP2;P2;SDS_P1;SDS_P2;PMS_P1;PMS_P2;Temp;Humidity;BMP_temperature;BMP_pressure;BME280_temperature;BME280_humidity;BME280_pressure;Samples;Min_cycle;Max_cycle;Signal;HPM_P1;HPM_P2
2022/06/15 00:02:00;;;;;;;0.20;0.20;;;;;;;;;;4913714;29;20058;-94
2022/06/15 00:04:31;;;;;;;0.20;0.10;;;;;;;;;;4901280;29;20032;-94
2022/06/15 00:12:52;;;;;;;0.55;0.55;;;;;;;;;;4915757;29;20054;-94
2022/06/15 00:15:39;;;;;;;0.20;0.10;;;;;;;;;;4949100;28;20264;-96
2022/06/15 00:18:34;;;;;;;;;;;;;;;;;;;;;
2022/06/15 00:21:23;;;;;;;0.20;0.10;;;;;;;;;;4944450;28;20081;-95
2022/06/15 00:24:00;;;;;;;;;;;;;;;;;;;;;
2022/06/15 00:26:53;;;;;;;0.20;0.00;;;;;;;;;;4944550;28;20089;-95
2022/06/15 00:29:26;;;;;;;0.20;0.03;;;;;;;;;;4956739;28;20039;-94
2022/06/15 00:32:31;;;;;;;;;;;;;;;;;;;;;
2022/06/15 00:38:13;;;;;;;;;;;;;;;;;;;;;
2022/06/15 00:41:07;;;;;;;0.20;0.10;;;;;;;;;;4950019;28;20051;-95
2022/06/15 00:43:54;;;;;;;0.20;0.10;;;;;;;;;;4950417;28;20087;-93
2022/06/15 00:46:49;;;;;;;0.20;0.10;;;;;;;;;;4952099;28;20047;-95
2022/06/15 00:49:48;;;;;;;0.20;0.10;;;;;;;;;;4935194;29;20059;-95
2022/06/15 00:55:32;;;;;;;;;;;;;;;;;;;;;
2022/06/15 00:58:08;;;;;;;0.20;0.10;;;;;;;;;;4961790;28;20039;-95
2022/06/15 01:01:03;;;;;;;0.20;0.10;;;;;;;;;;4959022;28;20045;-94
2022/06/15 01:06:46;;;;;;;0.20;0.10;;;;;;;;;;4961815;28;20039;-95
2022/06/15 01:10:02;;;;;;;0.20;0.10;;;;;;;;;;4956395;28;20045;-94
2022/06/15 01:12:43;;;;;;;0.20;0.00;;;;;;;;;;4948374;28;20212;-95
2022/06/15 01:15:36;;;;;;;0.20;0.10;;;;;;;;;;4948862;28;20446;-94
2022/06/15 01:18:11;;;;;;;0.20;0.00;;;;;;;;;;4918873;29;20043;-94
2022/06/15 01:21:00;;;;;;;0.20;0.00;;;;;;;;;;4956308;28;20417;-93
2022/06/15 01:23:52;;;;;;;0.20;0.00;;;;;;;;;;4955787;29;20069;-95
2022/06/15 01:26:47;;;;;;;0.20;0.10;;;;;;;;;;4959983;28;20035;-94
2022/06/15 01:29:34;;;;;;;0.20;0.17;;;;;;;;;;4942355;28;20055;-94
2022/06/15 01:32:19;;;;;;;0.20;0.10;;;;;;;;;;4953338;28;20130;-94
2022/06/15 01:35:27;;;;;;;0.20;0.10;;;;;;;;;;4935585;29;20063;-96
2022/06/15 01:38:49;;;;;;;0.20;0.10;;;;;;;;;;4911566;28;20055;-95
2022/06/15 01:41:47;;;;;;;0.20;0.10;;;;;;;;;;4949977;28;20126;-94
2022/06/15 01:44:31;;;;;;;;;;;;;;;;;;4908311;29;20051;-94
2022/06/15 01:47:18;;;;;;;0.20;0.00;;;;;;;;;;4937408;28;19934;-94
2022/06/15 01:49:49;;;;;;;0.20;0.10;;;;;;;;;;4932615;29;20043;-93
2022/06/15 01:52:38;;;;;;;0.20;0.05;;;;;;;;;;4928758;28;20047;-94
2022/06/15 01:55:33;;;;;;;0.20;0.10;;;;;;;;;;4949409;28;20054;-95
2022/06/15 01:58:23;;;;;;;0.20;0.00;;;;;;;;;;4934803;28;20046;-93
2022/06/15 02:01:15;;;;;;;0.20;0.00;;;;;;;;;;4933385;29;20059;-93
2022/06/15 02:04:04;;;;;;;0.20;0.10;;;;;;;;;;4947050;28;20047;-93
2022/06/15 02:06:30;;;;;;;0.50;0.50;;;;;;;;;;4931409;28;20043;-93
2022/06/15 02:09:09;;;;;;;0.20;0.00;;;;;;;;;;4937529;29;20055;-95
2022/06/15 02:12:01;;;;;;;0.25;0.20;;;;;;;;;;4935599;29;20043;-94
2022/06/15 02:15:11;;;;;;;0.20;0.10;;;;;;;;;;4922299;29;20039;-94
2022/06/15 02:17:46;;;;;;;0.20;0.20;;;;;;;;;;4913653;28;20522;-95
2022/06/15 02:20:51;;;;;;;;;;;;;;;;;;;;;
2022/06/15 03:13:21;;;;;;;0.20;0.10;;;;;;;;;;4960374;28;20484;-89
2022/06/15 03:15:59;;;;;;;0.20;0.00;;;;;;;;;;4941100;28;20081;-90
2022/06/15 03:18:29;;;;;;;0.20;0.10;;;;;;;;;;4925928;28;20128;-89
2022/06/15 03:21:11;;;;;;;0.20;0.00;;;;;;;;;;4926799;28;20424;-88
2022/06/15 03:23:48;;;;;;;;;;;;;;;;;;;;;
2022/06/15 03:26:15;;;;;;;0.20;0.10;;;;;;;;;;4924423;28;20038;-88
2022/06/15 03:28:41;;;;;;;0.20;0.10;;;;;;;;;;4926348;28;20070;-91
2022/06/15 03:31:08;;;;;;;0.20;0.10;;;;;;;;;;4939999;28;20030;-88
2022/06/15 03:33:35;;;;;;;0.73;0.70;;;;;;;;;;4942526;28;20330;-89
2022/06/15 03:36:07;;;;;;;0.20;0.10;;;;;;;;;;4941649;28;20635;-89
2022/06/15 03:38:42;;;;;;;0.20;0.10;;;;;;;;;;4935890;28;20085;-90
2022/06/15 03:41:24;;;;;;;0.20;0.00;;;;;;;;;;4940680;28;20404;-90
2022/06/15 03:43:50;;;;;;;0.20;0.00;;;;;;;;;;4938327;28;20455;-89
2022/06/15 03:46:16;;;;;;;0.20;0.10;;;;;;;;;;4935935;28;20035;-89
2022/06/15 03:48:51;;;;;;;0.20;0.03;;;;;;;;;;4942144;28;20133;-88
2022/06/15 03:51:17;;;;;;;0.20;0.10;;;;;;;;;;4939726;28;20031;-89
2022/06/15 03:53:43;;;;;;;0.20;0.10;;;;;;;;;;4934933;28;20035;-89
2022/06/15 03:56:16;;;;;;;0.20;0.10;;;;;;;;;;4942744;28;20054;-89
2022/06/15 03:58:42;;;;;;;0.32;0.15;;;;;;;;;;4939426;28;20422;-87
2022/06/15 04:01:08;;;;;;;0.20;0.10;;;;;;;;;;4936322;28;20069;-89
2022/06/15 04:03:34;;;;;;;0.95;0.95;;;;;;;;;;4941138;28;20062;-88
2022/06/15 04:06:01;;;;;;;0.20;0.10;;;;;;;;;;4939086;28;20515;-89
2022/06/15 04:08:34;;;;;;;0.20;0.10;;;;;;;;;;4941978;28;20051;-88
2022/06/15 04:14:00;;;;;;;0.20;0.00;;;;;;;;;;4956801;28;20133;-87
2022/06/15 04:16:26;;;;;;;0.20;0.03;;;;;;;;;;4936231;28;20042;-89
2022/06/15 04:18:52;;;;;;;0.20;0.10;;;;;;;;;;4910122;28;20054;-88
2022/06/15 04:21:19;;;;;;;0.20;0.00;;;;;;;;;;4910972;28;20137;-88
2022/06/15 04:23:45;;;;;;;0.20;0.10;;;;;;;;;;4935545;28;20053;-88
2022/06/15 05:46:35;;;;;;;0.20;0.10;;;;;;;;;;4965402;28;20045;-90
2022/06/15 05:49:34;;;;;;;0.20;0.00;;;;;;;;;;4944089;28;20053;-88
2022/06/15 05:52:12;;;;;;;0.20;0.10;;;;;;;;;;4934469;28;20325;-89
2022/06/15 05:54:50;;;;;;;0.63;0.30;;;;;;;;;;4943183;28;20034;-89
2022/06/15 05:57:21;;;;;;;0.50;0.20;;;;;;;;;;4917450;28;20096;-91
2022/06/15 05:59:48;;;;;;;0.20;0.20;;;;;;;;;;4952912;28;20047;-89
2022/06/15 06:02:15;;;;;;;0.20;0.10;;;;;;;;;;4949747;28;20480;-91
2022/06/15 06:04:44;;;;;;;0.57;0.20;;;;;;;;;;4949173;28;20412;-90
2022/06/15 06:07:11;;;;;;;0.20;0.10;;;;;;;;;;4946907;28;20064;-89
2022/06/15 06:09:37;;;;;;;0.20;0.00;;;;;;;;;;4949780;28;20047;-91
2022/06/15 06:12:23;;;;;;;0.20;0.00;;;;;;;;;;4931195;28;20484;-88
2022/06/15 06:14:53;;;;;;;0.20;0.05;;;;;;;;;;4946572;28;21256;-92
2022/06/15 06:17:26;;;;;;;0.20;0.10;;;;;;;;;;4937767;28;20132;-91
2022/06/15 06:19:52;;;;;;;0.20;0.10;;;;;;;;;;4953690;28;20142;-90
2022/06/15 06:22:21;;;;;;;0.20;0.10;;;;;;;;;;4951559;28;20039;-91
2022/06/15 06:24:51;;;;;;;0.20;0.10;;;;;;;;;;4954681;28;20077;-90
2022/06/15 06:27:21;;;;;;;0.20;0.10;;;;;;;;;;4947503;28;20214;-91
2022/06/15 06:30:05;;;;;;;1.52;1.05;;;;;;;;;;4947524;28;20289;-90
2022/06/15 06:32:31;;;;;;;0.20;0.15;;;;;;;;;;4952006;28;20042;-91
2022/06/15 06:34:58;;;;;;;0.20;0.10;;;;;;;;;;4953019;28;20034;-91
2022/06/15 06:37:24;;;;;;;0.20;0.10;;;;;;;;;;4937430;28;20050;-91
2022/06/15 06:39:55;;;;;;;0.20;0.10;;;;;;;;;;4950319;28;20038;-90
2022/06/15 06:42:22;;;;;;;0.20;0.10;;;;;;;;;;4932886;28;20081;-90
2022/06/15 06:44:48;;;;;;;0.20;0.10;;;;;;;;;;4931566;28;20334;-90
2022/06/15 06:47:22;;;;;;;0.20;0.10;;;;;;;;;;4931069;28;20143;-89
2022/06/15 06:49:51;;;;;;;0.20;0.10;;;;;;;;;;4947231;28;20050;-89
2022/06/15 06:52:32;;;;;;;0.30;0.30;;;;;;;;;;4946832;28;20609;-90
2022/06/15 06:54:58;;;;;;;0.20;0.10;;;;;;;;;;4950409;28;20049;-89
2022/06/15 06:57:27;;;;;;;0.30;0.20;;;;;;;;;;4932787;28;20121;-88
2022/06/15 06:59:59;;;;;;;0.35;0.10;;;;;;;;;;4932228;28;20050;-90
2022/06/15 07:02:31;;;;;;;0.20;0.10;;;;;;;;;;4943500;28;20496;-90
2022/06/15 07:04:58;;;;;;;0.40;0.35;;;;;;;;;;4941497;28;20082;-89
2022/06/15 07:07:25;;;;;;;0.20;0.10;;;;;;;;;;4935220;28;20200;-91
2022/06/15 07:09:51;;;;;;;0.20;0.10;;;;;;;;;;4944351;28;20460;-90
2022/06/15 07:12:30;;;;;;;0.20;0.10;;;;;;;;;;4941905;28;20038;-89
2022/06/15 07:14:56;;;;;;;0.30;0.20;;;;;;;;;;4930787;28;20093;-89
2022/06/15 07:17:26;;;;;;;0.40;0.15;;;;;;;;;;4949112;28;20356;-90
2022/06/15 07:19:52;;;;;;;0.20;0.10;;;;;;;;;;4948481;28;20046;-91
2022/06/15 07:22:18;;;;;;;0.20;0.10;;;;;;;;;;4935231;28;20046;-90
2022/06/15 07:24:49;;;;;;;0.20;0.10;;;;;;;;;;4949438;28;20038;-89
2022/06/15 07:27:19;;;;;;;0.30;0.20;;;;;;;;;;4946105;28;20117;-91
2022/06/15 07:29:48;;;;;;;0.20;0.13;;;;;;;;;;4962279;28;20046;-91
2022/06/15 07:32:18;;;;;;;0.20;0.10;;;;;;;;;;4928842;28;20039;-89
2022/06/15 07:34:44;;;;;;;0.20;0.10;;;;;;;;;;4942592;28;20043;-90
2022/06/15 07:40:32;;;;;;;0.47;0.47;;;;;;;;;;4900171;28;20044;-90
2022/06/15 07:42:58;;;;;;;0.20;0.10;;;;;;;;;;4936219;28;20065;-89
2022/06/15 07:52:22;;;;;;;0.30;0.30;;;;;;;;;;4914147;29;20047;-90
2022/06/15 08:01:24;;;;;;;0.20;0.10;;;;;;;;;;4914665;28;20081;-90
2022/06/15 08:07:00;;;;;;;0.45;0.35;;;;;;;;;;4956034;23;20070;-90
2022/06/15 08:09:49;;;;;;;0.20;0.10;;;;;;;;;;4908819;29;20035;-90
2022/06/15 08:12:51;;;;;;;0.20;0.10;;;;;;;;;;4908871;29;20510;-89
2022/06/15 08:15:26;;;;;;;0.50;0.20;;;;;;;;;;4884781;29;20056;-89
2022/06/15 08:18:01;;;;;;;0.20;0.10;;;;;;;;;;4907213;29;20084;-89
2022/06/15 08:20:31;;;;;;;0.40;0.28;;;;;;;;;;4905093;29;20396;-88
2022/06/15 08:23:09;;;;;;;0.45;0.45;;;;;;;;;;4898973;29;20316;-90
2022/06/15 08:25:48;;;;;;;0.20;0.20;;;;;;;;;;4906261;29;20073;-89
2022/06/15 08:31:44;;;;;;;0.20;0.10;;;;;;;;;;4854354;29;20645;-89
2022/06/15 08:37:56;;;;;;;0.20;0.10;;;;;;;;;;4881131;29;20626;-91
2022/06/15 08:43:48;;;;;;;0.20;0.10;;;;;;;;;;4918792;29;20043;-91
2022/06/15 08:46:19;;;;;;;0.20;0.20;;;;;;;;;;4908738;29;20076;-91
2022/06/15 08:49:31;;;;;;;0.20;0.10;;;;;;;;;;4922459;29;20465;-92
2022/06/15 08:52:00;;;;;;;0.20;0.10;;;;;;;;;;4929242;23;20050;-91
2022/06/15 08:54:59;;;;;;;;;;;;;;;;;;;;;
2022/06/15 08:58:19;;;;;;;0.25;0.13;;;;;;;;;;4937257;28;20045;-86
2022/06/15 09:00:56;;;;;;;0.43;0.38;;;;;;;;;;4926336;28;20129;-91
2022/06/15 09:03:38;;;;;;;1.48;0.30;;;;;;;;;;4943687;28;20125;-88
2022/06/15 09:06:15;;;;;;;0.20;0.10;;;;;;;;;;4960604;28;20046;-91
2022/06/15 09:15:18;;;;;;;;;;;;;;;;;;4956928;28;20507;-90
2022/06/15 09:18:31;;;;;;;0.75;0.38;;;;;;;;;;4957100;28;19919;-89
2022/06/15 09:21:38;;;;;;;0.60;0.32;;;;;;;;;;4933968;28;20053;-90
2022/06/15 09:24:35;;;;;;;0.20;0.15;;;;;;;;;;4937027;28;20038;-86
2022/06/15 09:30:35;;;;;;;0.50;0.10;;;;;;;;;;4943665;28;20122;-89
2022/06/15 09:33:34;;;;;;;0.20;0.10;;;;;;;;;;4937834;28;20051;-87
2022/06/15 09:36:09;;;;;;;0.35;0.20;;;;;;;;;;4889497;28;20130;-88
2022/06/15 09:38:38;;;;;;;0.20;0.10;;;;;;;;;;4920471;29;20102;-88
2022/06/15 09:41:24;;;;;;;0.20;0.10;;;;;;;;;;4922092;29;20039;-89
2022/06/15 09:44:09;;;;;;;0.20;0.10;;;;;;;;;;4916043;29;20512;-87
2022/06/15 09:46:41;;;;;;;0.20;0.10;;;;;;;;;;4924189;29;20609;-87
2022/06/15 09:49:08;;;;;;;0.20;0.10;;;;;;;;;;4924745;29;20122;-90
2022/06/15 09:51:53;;;;;;;0.20;0.10;;;;;;;;;;4921074;29;20051;-88
2022/06/15 09:54:22;;;;;;;0.20;0.10;;;;;;;;;;4913947;29;20047;-86
2022/06/15 09:56:50;;;;;;;0.20;0.10;;;;;;;;;;4916889;29;20039;-89
2022/06/15 09:59:20;;;;;;;3.22;0.30;;;;;;;;;;4952746;28;20527;-91
2022/06/15 10:01:47;;;;;;;0.20;0.10;;;;;;;;;;4957054;28;20042;-89
2022/06/15 10:04:29;;;;;;;0.85;0.22;;;;;;;;;;4939170;28;20078;-90
2022/06/15 10:07:01;;;;;;;0.20;0.10;;;;;;;;;;4954937;28;20034;-86
2022/06/15 10:09:29;;;;;;;0.20;0.13;;;;;;;;;;4951213;28;20046;-88
2022/06/15 10:12:55;;;;;;;0.40;0.20;;;;;;;;;;4938527;28;20038;-89
2022/06/15 10:14:48;;;;;;;0.20;0.00;;;;;;;;;;4952347;28;20085;-88
2022/06/15 10:17:35;;;;;;;0.20;0.10;;;;;;;;;;4953256;28;20053;-89
2022/06/15 10:20:01;;;;;;;1.27;0.40;;;;;;;;;;4940791;28;20247;-90
2022/06/15 10:22:30;;;;;;;0.40;0.32;;;;;;;;;;4939533;28;20046;-89
2022/06/15 10:25:00;;;;;;;0.20;0.10;;;;;;;;;;4944014;28;20046;-89
2022/06/15 10:27:37;;;;;;;0.20;0.10;;;;;;;;;;4953623;28;20073;-87
2022/06/15 10:30:07;;;;;;;0.65;0.30;;;;;;;;;;4962954;28;20047;-88
2022/06/15 10:32:35;;;;;;;0.20;0.10;;;;;;;;;;4955945;28;20375;-87
2022/06/15 10:35:04;;;;;;;0.63;0.30;;;;;;;;;;4957386;28;20082;-89
2022/06/15 10:37:31;;;;;;;0.20;0.13;;;;;;;;;;4940277;28;20050;-88
2022/06/15 10:39:59;;;;;;;1.67;0.70;;;;;;;;;;4954773;28;20373;-89
2022/06/15 10:42:41;;;;;;;0.20;0.15;;;;;;;;;;4954748;28;20038;-89
2022/06/15 10:45:07;;;;;;;;;;;;;;;;;;4935344;28;20608;-89
2022/06/15 10:47:43;;;;;;;0.30;0.25;;;;;;;;;;4935567;28;19922;-91
2022/06/15 10:50:26;;;;;;;0.20;0.10;;;;;;;;;;4952495;28;20472;-87
2022/06/15 10:53:27;;;;;;;0.20;0.10;;;;;;;;;;4840881;28;3350118;-91
2022/06/15 11:04:25;;;;;;;0.20;0.20;;;;;;;;;;4956137;28;20072;-86
2022/06/15 11:07:12;;;;;;;0.20;0.10;;;;;;;;;;4935877;28;20101;-86
2022/06/15 11:09:44;;;;;;;0.20;0.10;;;;;;;;;;4944383;28;20031;-91
2022/06/15 11:12:34;;;;;;;0.70;0.60;;;;;;;;;;4953295;28;20146;-91
2022/06/15 11:15:23;;;;;;;0.20;0.10;;;;;;;;;;4940867;28;20115;-87
2022/06/15 11:18:03;;;;;;;0.20;0.20;;;;;;;;;;4938452;28;20098;-88
2022/06/15 11:20:44;;;;;;;0.20;0.10;;;;;;;;;;4952409;28;20042;-87
2022/06/15 11:23:16;;;;;;;0.20;0.10;;;18.80;96.20;;;;;;4955558;28;20165;-87
2022/06/15 11:26:02;;;;;;;0.20;0.17;;;20.40;92.00;;;;;;4940247;28;20811;-88
2022/06/15 11:28:33;;;;;;;0.20;0.10;;;;;;;;;;4958114;28;20046;-89
2022/06/15 11:31:05;;;;;;;0.30;0.10;;;;;;;;;;4959453;28;20566;-89
2022/06/15 11:33:38;;;;;;;0.20;0.08;;;;;;;;;;4961698;28;20283;-88
2022/06/15 11:36:25;;;;;;;0.20;0.10;;;;;;;;;;4942169;23;20527;-85
2022/06/15 11:38:55;;;;;;;0.20;0.10;;;;;;;;;;4927310;28;20039;-86
2022/06/15 11:41:25;;;;;;;0.20;0.10;;;;;;;;;;4908085;28;20124;-87
2022/06/15 11:43:52;;;;;;;0.45;0.30;;;;;;;;;;4923325;28;20093;-86
2022/06/15 11:46:22;;;;;;;0.43;0.30;;;;;;;;;;4924549;28;20036;-85
2022/06/15 11:48:53;;;;;;;0.45;0.25;;;;;;;;;;4921985;28;20087;-87
2022/06/15 11:51:35;;;;;;;0.20;0.10;;;;;;;;;;4900283;28;20046;-87
2022/06/15 11:54:01;;;;;;;0.30;0.30;;;;;;;;;;4924926;28;20401;-86
2022/06/15 11:56:53;;;;;;;0.20;0.08;;;;;;;;;;4925281;28;20074;-86
2022/06/15 11:59:19;;;;;;;;;;;;;;;;;;4897281;28;20046;-85
2022/06/15 12:02:09;;;;;;;0.30;0.20;;;;;;;;;;4930085;28;19932;-88
2022/06/15 12:04:49;;;;;;;0.90;0.30;;;;;;;;;;4925807;28;20039;-87
2022/06/15 12:07:43;;;;;;;0.20;0.10;;;;;;;;;;4925383;28;20047;-86
2022/06/15 12:10:32;;;;;;;0.20;0.00;;;;;;;;;;4928451;28;20039;-85
2022/06/15 12:13:05;;;;;;;0.20;0.10;;;;;;;;;;4895242;28;20445;-85
2022/06/15 12:15:40;;;;;;;0.20;0.10;;;;;;;;;;4923101;28;20583;-86
2022/06/15 12:18:15;;;;;;;1.75;0.40;;;;;;;;;;4927309;29;20709;-86
2022/06/15 12:20:49;;;;;;;0.20;0.10;;;;;;;;;;4925398;28;20071;-87
2022/06/15 12:23:34;;;;;;;0.20;0.10;;;;;;;;;;4932293;28;20130;-84
2022/06/15 12:26:09;;;;;;;0.22;0.22;;;;;;;;;;4929700;28;20075;-87
2022/06/15 12:28:58;;;;;;;0.20;0.10;;;;;;;;;;4924949;28;20070;-87
2022/06/15 12:31:46;;;;;;;0.20;0.10;;;;;;;;;;4930405;28;20043;-89
2022/06/15 12:34:39;;;;;;;0.20;0.10;;;;;;;;;;4926574;28;20077;-87
2022/06/15 12:37:05;;;;;;;0.20;0.10;;;;;;;;;;4930053;29;20404;-88
2022/06/15 12:40:00;;;;;;;0.20;0.10;;;;;;;;;;4928746;28;20130;-84
2022/06/15 12:42:26;;;;;;;;;;;;;;;;;;4901586;28;22998;-87
2022/06/15 12:45:02;;;;;;;0.20;0.10;;;;;;;;;;4923712;28;19930;-89
2022/06/15 12:47:29;;;;;;;0.43;0.25;;;;;;;;;;4929458;28;20411;-86
2022/06/15 12:50:10;;;;;;;0.20;0.10;;;;;;;;;;4930599;28;20043;-85
2022/06/15 12:52:39;;;;;;;0.20;0.10;;;;;;;;;;4931481;28;20043;-89
2022/06/15 12:55:05;;;;;;;0.20;0.17;;;;;;;;;;4914944;28;20125;-88
2022/06/15 12:58:08;;;;;;;0.38;0.30;;;;;;;;;;4934366;28;20046;-87
2022/06/15 13:00:34;;;;;;;;;;;;;;;;;;4921949;28;20463;-87
2022/06/15 13:03:21;;;;;;;0.20;0.10;;;;;;;;;;4944508;29;19926;-85
2022/06/15 13:05:47;;;;;;;0.20;0.10;;;;;;;;;;4924285;28;20145;-89
2022/06/15 13:08:16;;;;;;;0.20;0.10;;;;;;;;;;4911960;28;20046;-88
2022/06/15 13:10:55;;;;;;;10.30;0.32;;;;;;;;;;4925810;28;20349;-86
2022/06/15 13:13:27;;;;;;;0.20;0.10;;;;;;;;;;4920987;28;20125;-86
2022/06/15 13:16:11;;;;;;;0.20;0.10;;;;;;;;;;4907106;28;20054;-87
2022/06/15 13:18:49;;;;;;;0.20;0.10;;;;;;;;;;4924712;28;20126;-89
2022/06/15 13:21:32;;;;;;;0.20;0.10;;;;;;;;;;4918557;28;20540;-89
2022/06/15 13:24:24;;;;;;;0.30;0.10;;;;;;;;;;4916144;28;20508;-88
2022/06/15 13:27:01;;;;;;;0.80;0.60;;;;;;;;;;4924577;29;20044;-87
2022/06/15 13:29:31;;;;;;;0.22;0.13;;;;;;;;;;4897707;28;20036;-88
2022/06/15 13:31:59;;;;;;;0.25;0.25;;;;;;;;;;4921939;29;20214;-88
2022/06/15 13:34:34;;;;;;;0.20;0.10;;;;;;;;;;4927064;29;20035;-89
2022/06/15 13:37:25;;;;;;;0.45;0.25;;;;;;;;;;4928163;29;20073;-87
2022/06/15 13:43:23;;;;;;;0.20;0.10;;;;;;;;;;4936132;28;20558;-87
2022/06/15 13:45:53;;;;;;;0.20;0.10;;;;;;;;;;4930744;28;20054;-86
2022/06/15 13:52:01;;;;;;;0.20;0.13;;;;;;;;;;4933395;28;20552;-87
2022/06/15 13:54:50;;;;;;;0.20;0.10;;;;;;;;;;4916635;28;20062;-88
2022/06/15 13:57:44;;;;;;;0.20;0.10;;;;;;;;;;4923071;28;20046;-89
2022/06/15 14:00:10;;;;;;;0.20;0.10;;;;;;;;;;4912865;28;20043;-89
2022/06/15 14:03:14;;;;;;;0.70;0.50;;;;;;;;;;4906301;28;20424;-88
2022/06/15 14:05:58;;;;;;;0.20;0.10;;;;;;;;;;4919707;28;20043;-88
2022/06/15 14:08:43;;;;;;;0.20;0.10;;;;;;;;;;4924779;28;20469;-90
2022/06/15 14:11:29;;;;;;;0.20;0.10;;;;;;;;;;4927021;28;20043;-89
2022/06/15 14:14:13;;;;;;;0.20;0.10;;;;;;;;;;4911451;28;20032;-90
2022/06/15 14:16:52;;;;;;;0.20;0.13;;;;;;;;;;4925259;28;20043;-87
2022/06/15 14:19:27;;;;;;;0.20;0.10;;;;;;;;;;4921416;28;20420;-89
2022/06/15 14:22:07;;;;;;;0.20;0.10;;;;;;;;;;4927379;28;20317;-87
2022/06/15 14:25:00;;;;;;;0.20;0.10;;;;;;;;;;4925220;28;20044;-89
2022/06/15 14:27:33;;;;;;;0.20;0.10;;;;;;;;;;4832801;29;20041;-89
2022/06/15 14:30:01;;;;;;;0.20;0.10;;;;;;;;;;4919676;28;20614;-87
2022/06/15 14:32:36;;;;;;;0.20;0.10;;;;;;;;;;4925956;28;20423;-87
2022/06/15 14:35:05;;;;;;;0.25;0.10;;;;;;;;;;4912310;28;20050;-85
2022/06/15 14:37:36;;;;;;;0.28;0.20;;;;;;;;;;4922882;28;20123;-86
2022/06/15 14:40:06;;;;;;;1.95;0.30;;;;;;;;;;4918845;28;20058;-86
2022/06/15 14:42:54;;;;;;;0.65;0.32;;;;;;;;;;4920128;28;20071;-87
2022/06/15 14:45:20;;;;;;;0.30;0.20;;;;;;;;;;4923363;28;20082;-89
2022/06/15 14:48:02;;;;;;;0.60;0.30;;;;;;;;;;4924621;28;20062;-87
2022/06/15 14:50:36;;;;;;;0.20;0.20;;;;;;;;;;4919680;28;20143;-88
2022/06/15 14:53:31;;;;;;;0.20;0.10;;;;;;;;;;4907527;28;20047;-90
2022/06/15 14:56:05;;;;;;;0.20;0.10;;;;;;;;;;4898639;28;20051;-88
2022/06/15 14:58:35;;;;;;;0.20;0.13;;;;;;;;;;4913043;28;20046;-87
2022/06/15 15:01:27;;;;;;;0.22;0.20;;;;;;;;;;4914486;28;20146;-90
2022/06/15 15:03:57;;;;;;;;;;;;;;;;;;4909283;28;20121;-88
2022/06/15 15:06:30;;;;;;;0.40;0.40;;;;;;;;;;4923703;28;19922;-88
2022/06/15 15:09:12;;;;;;;0.30;0.22;;;;;;;;;;4929392;28;20039;-88
2022/06/15 15:11:41;;;;;;;0.20;0.10;;;;;;;;;;4908779;28;20043;-88
2022/06/15 15:14:13;;;;;;;0.20;0.10;;;;;;;;;;4923518;28;20678;-88
2022/06/15 15:16:51;;;;;;;0.20;0.20;;;;;;;;;;4928925;28;20070;-87
2022/06/15 15:19:29;;;;;;;0.20;0.10;;;;;;;;;;4929801;28;20046;-87
2022/06/15 15:22:19;;;;;;;0.28;0.20;;;;;;;;;;4924652;28;20191;-88
2022/06/15 15:24:48;;;;;;;6.95;0.82;;;;;;;;;;4916420;28;20131;-86
2022/06/15 15:36:11;;;;;;;0.20;0.10;;;;;;;;;;4932738;28;20067;-87
2022/06/15 15:38:41;;;;;;;0.30;0.13;;;;;;;;;;4923189;28;20052;-87
2022/06/15 15:41:09;;;;;;;0.20;0.10;;;;;;;;;;4922048;28;20126;-86
2022/06/15 15:43:40;;;;;;;0.52;0.22;;;;;;;;;;4919347;28;20118;-91
2022/06/15 15:46:11;;;;;;;0.20;0.10;;;;;;;;;;4922188;28;20031;-88
2022/06/15 15:48:37;;;;;;;0.20;0.10;;;;;;;;;;4890822;28;20035;-88
2022/06/15 15:53:51;;;;;;;0.20;0.13;;;;;;;;;;4922749;28;20134;-89
2022/06/15 15:56:17;;;;;;;0.25;0.20;;;;;;;;;;4916230;28;20043;-82
2022/06/15 15:58:46;;;;;;;0.65;0.43;;;;;;;;;;4919287;28;20035;-87
2022/06/15 16:01:21;;;;;;;0.20;0.10;;;;;;;;;;4904270;28;20074;-87
2022/06/15 16:04:06;;;;;;;0.47;0.47;;;;;;;;;;4908457;28;20042;-89
2022/06/15 16:06:36;;;;;;;0.20;0.10;;;;;;;;;;4902208;28;20523;-88
2022/06/15 16:09:02;;;;;;;0.80;0.80;;;;;;;;;;4919382;28;20170;-89
2022/06/15 16:11:35;;;;;;;0.20;0.10;;;;;;;;;;4922345;28;20140;-87
2022/06/15 16:14:02;;;;;;;0.20;0.15;;;;;;;;;;4916943;28;20038;-86
2022/06/15 16:16:29;;;;;;;0.25;0.25;;;;;;;;;;4917306;28;20063;-87
2022/06/15 16:18:58;;;;;;;0.20;0.10;;;;;;;;;;4917711;28;20043;-87
2022/06/15 16:21:28;;;;;;;0.20;0.20;;;;;;;;;;4920949;29;20512;-86
2022/06/15 16:24:08;;;;;;;0.30;0.30;;;;;;;;;;4912596;28;20079;-88
2022/06/15 16:26:50;;;;;;;0.30;0.20;;;;;;;;;;4943216;28;20054;-87
2022/06/15 16:29:18;;;;;;;0.20;0.10;;;;;;;;;;4891873;28;20070;-88
2022/06/15 16:31:50;;;;;;;0.25;0.25;;;;;;;;;;4902996;28;20039;-87
2022/06/15 16:34:16;;;;;;;;;;;;;;;;;;4917951;28;20596;-88
2022/06/15 16:36:43;;;;;;;0.30;0.30;;;;;;;;;;4903916;28;19926;-88
2022/06/15 16:39:09;;;;;;;0.20;0.10;;;;;;;;;;4914638;28;20043;-87
2022/06/15 16:41:35;;;;;;;0.68;0.68;;;;;;;;;;4923886;28;20035;-89
2022/06/15 16:44:03;;;;;;;0.20;0.10;;;;;;;;;;4920566;28;20637;-88
2022/06/15 16:46:30;;;;;;;0.20;0.10;;;;;;;;;;4922387;28;20074;-87
2022/06/15 16:48:58;;;;;;;5.05;0.50;;;;;;;;;;4921037;28;20039;-88
2022/06/15 16:51:34;;;;;;;0.40;0.22;;;;;;;;;;4927134;28;20122;-88
2022/06/15 16:54:02;;;;;;;0.30;0.30;;;;;;;;;;4926006;28;20098;-91
2022/06/15 16:56:44;;;;;;;0.68;0.57;;;;;;;;;;4924205;28;20039;-89
2022/06/15 16:59:22;;;;;;;13.15;0.40;;;;;;;;;;4922326;28;20043;-88
2022/06/15 17:01:52;;;;;;;0.45;0.30;;;;;;;;;;4921535;28;20043;-89
2022/06/15 17:04:31;;;;;;;0.20;0.10;;;;;;;;;;4925048;28;20071;-87
2022/06/15 17:07:00;;;;;;;0.20;0.10;;;;;;;;;;4923891;28;20438;-90
2022/06/15 17:09:33;;;;;;;0.20;0.17;;;;;;;;;;4923752;28;20071;-86
2022/06/15 17:12:09;;;;;;;0.40;0.40;;;;;;;;;;4920915;29;20039;-91
2022/06/15 17:14:36;;;;;;;0.30;0.20;;;;;;;;;;4919830;28;20031;-87
2022/06/15 17:17:06;;;;;;;0.20;0.10;;;;;;;;;;4919872;29;20055;-87
2022/06/15 17:19:38;;;;;;;0.50;0.50;;;;;;;;;;4920570;28;20057;-90
2022/06/15 17:22:08;;;;;;;0.55;0.55;;;;;;;;;;4922916;28;20369;-93
2022/06/15 17:24:34;;;;;;;0.20;0.10;;;;;;;;;;4926031;29;20456;-89
2022/06/15 17:27:07;;;;;;;0.20;0.15;;;;;;;;;;4924185;28;20493;-88
2022/06/15 17:30:02;;;;;;;0.20;0.10;;;;;;;;;;4927970;28;20035;-91
2022/06/15 17:32:30;;;;;;;0.30;0.28;;;;;;;;;;4893959;28;20508;-89
2022/06/15 17:34:56;;;;;;;0.20;0.10;;;;;;;;;;4925706;28;20046;-87
2022/06/15 17:37:37;;;;;;;0.55;0.47;;;;;;;;;;4927025;29;20182;-88
2022/06/15 17:40:17;;;;;;;0.20;0.20;;;;;;;;;;4923863;28;20047;-90
2022/06/15 17:42:49;;;;;;;0.20;0.10;;;;;;;;;;4923728;28;20047;-88
2022/06/15 17:45:19;;;;;;;1.65;0.65;;;;;;;;;;4928554;28;20106;-88
2022/06/15 17:47:55;;;;;;;0.22;0.22;;;;;;;;;;4914599;29;20039;-86
2022/06/15 17:50:24;;;;;;;0.47;0.13;;;;;;;;;;4928712;28;20260;-90
2022/06/15 17:52:53;;;;;;;0.20;0.10;;;;;;;;;;4923046;29;20039;-86
2022/06/15 17:55:22;;;;;;;0.20;0.10;;;;;;;;;;4897489;28;20348;-88
2022/06/15 17:57:51;;;;;;;0.20;0.20;;;;;;;;;;4909439;28;20425;-90
2022/06/15 18:03:25;;;;;;;0.20;0.10;;;;;;;;;;4933682;28;20043;-91
2022/06/15 18:05:58;;;;;;;0.20;0.10;;;;;;;;;;4907512;28;20043;-89
2022/06/15 18:08:28;;;;;;;;;;;;;;;;;;4921105;28;20039;-88
2022/06/15 18:10:54;;;;;;;0.30;0.28;;;;;;;;;;4924655;28;19926;-88
2022/06/15 18:13:36;;;;;;;0.20;0.10;;;;;;;;;;4922113;28;20047;-89
2022/06/15 18:16:31;;;;;;;0.55;0.55;;;;;;;;;;4898147;28;20042;-89
2022/06/15 18:19:27;;;;;;;0.30;0.20;;;;;;;;;;4926992;28;20149;-89
2022/06/15 18:22:02;;;;;;;0.35;0.20;;;;;;;;;;4921289;28;20039;-85
2022/06/15 18:24:29;;;;;;;0.20;0.10;;;;;;;;;;4918979;28;20050;-88
2022/06/15 18:27:14;;;;;;;;;;;;;;;;;;;;;
2022/06/15 18:29:43;;;;;;;0.50;0.35;;;18.70;70.10;;;;;;4937437;28;20469;-86
2022/06/15 18:32:22;;;;;;;0.52;0.52;;;18.50;71.20;;;;;;4931086;29;20058;-86
2022/06/15 18:34:49;;;;;;;0.20;0.10;;;18.50;73.70;;;;;;4939497;28;20122;-88
2022/06/15 18:37:33;;;;;;;0.20;0.10;;;18.40;75.50;;;;;;4914990;28;20065;-88
2022/06/15 18:40:07;;;;;;;0.30;0.13;;;18.30;75.60;;;;;;4915300;28;20054;-86
2022/06/15 18:42:33;;;;;;;0.20;0.10;;;18.20;74.60;;;;;;4926103;28;20043;-86
2022/06/15 18:47:57;;;;;;;0.20;0.17;;;18.20;75.90;;;;;;4906758;28;20218;-88
2022/06/15 18:50:25;;;;;;;0.20;0.10;;;;;;;;;;4912967;29;20210;-87
2022/06/15 18:52:53;;;;;;;0.20;0.10;;;;;;;;;;4928879;29;20036;-86
2022/06/15 18:55:32;;;;;;;0.20;0.10;;;18.00;74.60;;;;;;4914035;28;20332;-87
2022/06/15 18:58:01;;;;;;;0.20;0.10;;;;;;;;;;4922978;29;20054;-87
2022/06/15 19:00:39;;;;;;;0.20;0.10;;;;;;;;;;4924375;28;20126;-88
2022/06/15 19:03:36;;;;;;;0.20;0.10;;;;;;;;;;4929881;28;20047;-86
2022/06/15 19:06:12;;;;;;;1.10;0.30;;;;;;;;;;4928636;28;20500;-86
2022/06/15 19:08:52;;;;;;;0.20;0.13;;;;;;;;;;4921075;28;20035;-87
2022/06/15 19:11:24;;;;;;;1.48;0.40;;;;;;;;;;4929254;28;20181;-86
2022/06/15 19:14:05;;;;;;;0.20;0.10;;;;;;;;;;4907787;28;20312;-87
2022/06/15 19:16:32;;;;;;;0.20;0.17;;;;;;;;;;4923526;28;20035;-89
2022/06/15 19:19:02;;;;;;;0.20;0.10;;;;;;;;;;4929879;28;20408;-89
2022/06/15 19:21:29;;;;;;;0.20;0.10;;;;;;;;;;4924494;28;20043;-88
2022/06/15 19:24:40;;;;;;;0.20;0.20;;;;;;;;;;4929092;28;20417;-87
2022/06/15 19:27:06;;;;;;;0.20;0.10;;;;;;;;;;4929708;29;20413;-85
2022/06/15 19:29:32;;;;;;;0.20;0.15;;;;;;;;;;4928450;28;20451;-87